sensor_id;sensor_type;location;lat;lon;timestamp;pressure;altitude;pressure_sealevel;temperature;humidity
3917;BME280;1973;50.518;7.318;2023-06-22T00:00:10;101006.06;;;22.58;100.00
3917;BME280;1973;50.518;7.318;2023-06-22T00:02:38;101012.50;;;22.58;100.00
3917;BME280;1973;50.518;7.318;2023-06-22T00:05:05;101003.53;;;22.56;100.00
3917;BME280;1973;50.518;7.318;2023-06-22T00:07:32;100999.88;;;22.56;100.00
3917;BME280;1973;50.518;7.318;2023-06-22T00:09:58;101005.25;;;22.52;100.00
3917;BME280;1973;50.518;7.318;2023-06-22T00:12:25;101006.94;;;22.48;100.00
3917;BME280;1973;50.518;7.318;2023-06-22T00:14:51;101012.88;;;22.47;100.00
3917;BME280;1973;50.518;7.318;2023-06-22T00:17:19;101020.44;;;22.46;100.00
3917;BME280;1973;50.518;7.318;2023-06-22T00:19:48;101005.84;;;22.44;100.00
3917;BME280;1973;50.518;7.318;2023-06-22T00:22:19;101015.38;;;22.43;100.00
3917;BME280;1973;50.518;7.318;2023-06-22T00:24:55;101019.59;;;22.46;100.00
3917;BME280;1973;50.518;7.318;2023-06-22T00:27:22;101024.63;;;22.49;100.00
3917;BME280;1973;50.518;7.318;2023-06-22T00:29:48;101036.13;;;22.52;100.00
3917;BME280;1973;50.518;7.318;2023-06-22T00:32:15;101023.47;;;22.55;100.00
3917;BME280;1973;50.518;7.318;2023-06-22T00:34:42;101029.06;;;22.55;100.00
3917;BME280;1973;50.518;7.318;2023-06-22T00:37:08;101024.31;;;22.55;100.00
3917;BME280;1973;50.518;7.318;2023-06-22T00:39:35;101032.19;;;22.53;100.00
3917;BME280;1973;50.518;7.318;2023-06-22T00:42:02;101031.34;;;22.53;100.00
3917;BME280;1973;50.518;7.318;2023-06-22T00:44:28;101022.09;;;22.47;100.00
3917;BME280;1973;50.518;7.318;2023-06-22T00:46:55;101027.19;;;22.45;100.00
3917;BME280;1973;50.518;7.318;2023-06-22T00:49:21;101026.59;;;22.43;100.00
3917;BME280;1973;50.518;7.318;2023-06-22T00:51:48;101029.13;;;22.45;100.00
3917;BME280;1973;50.518;7.318;2023-06-22T00:54:15;101038.69;;;22.44;100.00
3917;BME280;1973;50.518;7.318;2023-06-22T00:56:41;101033.06;;;22.44;100.00
3917;BME280;1973;50.518;7.318;2023-06-22T00:59:10;101039.53;;;22.44;100.00
3917;BME280;1973;50.518;7.318;2023-06-22T01:01:38;101049.63;;;22.45;100.00
3917;BME280;1973;50.518;7.318;2023-06-22T01:07:25;101037.81;;;22.43;100.00
3917;BME280;1973;50.518;7.318;2023-06-22T01:12:31;101028.28;;;22.44;100.00
3917;BME280;1973;50.518;7.318;2023-06-22T01:15:08;101026.91;;;22.42;100.00
3917;BME280;1973;50.518;7.318;2023-06-22T01:17:40;101024.94;;;22.42;100.00
3917;BME280;1973;50.518;7.318;2023-06-22T01:20:08;101020.72;;;22.40;100.00
3917;BME280;1973;50.518;7.318;2023-06-22T01:22:51;101012.03;;;22.41;100.00
3917;BME280;1973;50.518;7.318;2023-06-22T01:25:33;101012.31;;;22.40;100.00
3917;BME280;1973;50.518;7.318;2023-06-22T01:31:10;101006.44;;;22.36;100.00
3917;BME280;1973;50.518;7.318;2023-06-22T01:33:41;101005.31;;;22.37;100.00
3917;BME280;1973;50.518;7.318;2023-06-22T01:36:08;100994.69;;;22.34;100.00
3917;BME280;1973;50.518;7.318;2023-06-22T01:38:37;100996.38;;;22.35;100.00
3917;BME280;1973;50.518;7.318;2023-06-22T01:41:03;100989.91;;;22.35;100.00
3917;BME280;1973;50.518;7.318;2023-06-22T01:43:31;100992.16;;;22.32;100.00
3917;BME280;1973;50.518;7.318;2023-06-22T01:46:02;100992.47;;;22.31;100.00
3917;BME280;1973;50.518;7.318;2023-06-22T01:48:30;100987.13;;;22.29;100.00
3917;BME280;1973;50.518;7.318;2023-06-22T01:50:57;100989.66;;;22.31;100.00
3917;BME280;1973;50.518;7.318;2023-06-22T01:53:24;100992.19;;;22.27;100.00
3917;BME280;1973;50.518;7.318;2023-06-22T01:55:51;100998.09;;;22.26;100.00
3917;BME280;1973;50.518;7.318;2023-06-22T01:58:20;100992.47;;;22.26;100.00
3917;BME280;1973;50.518;7.318;2023-06-22T02:03:41;101010.72;;;22.23;100.00
3917;BME280;1973;50.518;7.318;2023-06-22T02:06:17;101003.72;;;22.21;100.00
3917;BME280;1973;50.518;7.318;2023-06-22T02:08:50;101006.53;;;22.21;100.00
3917;BME280;1973;50.518;7.318;2023-06-22T02:11:19;101004.56;;;22.21;100.00
3917;BME280;1973;50.518;7.318;2023-06-22T02:13:47;101005.69;;;22.20;100.00
3917;BME280;1973;50.518;7.318;2023-06-22T02:16:15;101014.41;;;22.19;100.00
3917;BME280;1973;50.518;7.318;2023-06-22T02:18:47;101017.75;;;22.21;100.00
3917;BME280;1973;50.518;7.318;2023-06-22T02:21:20;101008.19;;;22.22;100.00
3917;BME280;1973;50.518;7.318;2023-06-22T02:23:47;101004.84;;;22.20;100.00
3917;BME280;1973;50.518;7.318;2023-06-22T02:26:16;101005.41;;;22.22;100.00
3917;BME280;1973;50.518;7.318;2023-06-22T02:28:43;101006.81;;;22.19;100.00
3917;BME280;1973;50.518;7.318;2023-06-22T02:31:10;100994.22;;;22.17;100.00
3917;BME280;1973;50.518;7.318;2023-06-22T02:33:37;100985.25;;;22.15;100.00
3917;BME280;1973;50.518;7.318;2023-06-22T02:36:04;100969.00;;;22.12;100.00
3917;BME280;1973;50.518;7.318;2023-06-22T02:38:31;100956.66;;;22.08;100.00
3917;BME280;1973;50.518;7.318;2023-06-22T02:41:00;100955.03;;;22.02;100.00
3917;BME280;1973;50.518;7.318;2023-06-22T02:43:26;100960.06;;;22.00;100.00
3917;BME280;1973;50.518;7.318;2023-06-22T02:45:53;100970.44;;;21.99;100.00
3917;BME280;1973;50.518;7.318;2023-06-22T02:48:20;100974.66;;;21.97;100.00
3917;BME280;1973;50.518;7.318;2023-06-22T02:50:46;100965.72;;;21.95;100.00
3917;BME280;1973;50.518;7.318;2023-06-22T02:53:13;100969.34;;;21.95;100.00
3917;BME280;1973;50.518;7.318;2023-06-22T02:55:39;100980.53;;;21.95;100.00
3917;BME280;1973;50.518;7.318;2023-06-22T02:58:07;100981.97;;;21.93;100.00
3917;BME280;1973;50.518;7.318;2023-06-22T03:00:33;100983.66;;;21.94;100.00
3917;BME280;1973;50.518;7.318;2023-06-22T03:03:00;100978.06;;;21.94;100.00
3917;BME280;1973;50.518;7.318;2023-06-22T03:05:26;100976.38;;;21.93;100.00
3917;BME280;1973;50.518;7.318;2023-06-22T03:07:53;100980.28;;;21.92;100.00
3917;BME280;1973;50.518;7.318;2023-06-22T03:10:20;100976.38;;;21.93;100.00
3917;BME280;1973;50.518;7.318;2023-06-22T03:12:46;100971.88;;;21.92;100.00
3917;BME280;1973;50.518;7.318;2023-06-22T03:15:13;100978.03;;;21.89;100.00
3917;BME280;1973;50.518;7.318;2023-06-22T03:17:40;100979.19;;;21.88;100.00
3917;BME280;1973;50.518;7.318;2023-06-22T03:20:08;100981.41;;;21.85;100.00
3917;BME280;1973;50.518;7.318;2023-06-22T03:22:40;100974.69;;;21.81;100.00
3917;BME280;1973;50.518;7.318;2023-06-22T03:25:08;100965.16;;;21.77;100.00
3917;BME280;1973;50.518;7.318;2023-06-22T03:27:40;100963.78;;;21.75;100.00
3917;BME280;1973;50.518;7.318;2023-06-22T03:30:08;100955.97;;;21.72;100.00
3917;BME280;1973;50.518;7.318;2023-06-22T03:32:35;100956.81;;;21.67;100.00
3917;BME280;1973;50.518;7.318;2023-06-22T03:35:02;100959.34;;;21.64;100.00
3917;BME280;1973;50.518;7.318;2023-06-22T03:37:29;100955.97;;;21.62;100.00
3917;BME280;1973;50.518;7.318;2023-06-22T03:39:55;100954.00;;;21.62;100.00
3917;BME280;1973;50.518;7.318;2023-06-22T03:42:22;100957.97;;;21.61;100.00
3917;BME280;1973;50.518;7.318;2023-06-22T03:44:48;100952.34;;;21.61;100.00
3917;BME280;1973;50.518;7.318;2023-06-22T03:47:15;100948.97;;;21.59;100.00
3917;BME280;1973;50.518;7.318;2023-06-22T03:49:41;100947.88;;;21.60;100.00
3917;BME280;1973;50.518;7.318;2023-06-22T03:52:08;100943.69;;;21.58;100.00
3917;BME280;1973;50.518;7.318;2023-06-22T03:54:34;100941.69;;;21.58;100.00
3917;BME280;1973;50.518;7.318;2023-06-22T03:57:01;100940.03;;;21.57;100.00
3917;BME280;1973;50.518;7.318;2023-06-22T03:59:27;100934.44;;;21.57;100.00
3917;BME280;1973;50.518;7.318;2023-06-22T04:01:54;100938.88;;;21.58;100.00
3917;BME280;1973;50.518;7.318;2023-06-22T04:04:20;100936.09;;;21.58;100.00
3917;BME280;1973;50.518;7.318;2023-06-22T04:06:47;100930.47;;;21.58;100.00
3917;BME280;1973;50.518;7.318;2023-06-22T04:09:14;100944.50;;;21.58;100.00
3917;BME280;1973;50.518;7.318;2023-06-22T04:11:40;100942.25;;;21.60;100.00
3917;BME280;1973;50.518;7.318;2023-06-22T04:14:07;100952.06;;;21.63;100.00
3917;BME280;1973;50.518;7.318;2023-06-22T04:16:33;100944.75;;;21.67;100.00
3917;BME280;1973;50.518;7.318;2023-06-22T04:19:00;100947.53;;;21.72;100.00
3917;BME280;1973;50.518;7.318;2023-06-22T04:21:26;100943.91;;;21.76;100.00
3917;BME280;1973;50.518;7.318;2023-06-22T04:23:53;100947.22;;;21.78;100.00
3917;BME280;1973;50.518;7.318;2023-06-22T04:26:19;100946.66;;;21.81;100.00
3917;BME280;1973;50.518;7.318;2023-06-22T04:28:47;100944.97;;;21.80;100.00
3917;BME280;1973;50.518;7.318;2023-06-22T04:31:18;100942.75;;;21.82;100.00
3917;BME280;1973;50.518;7.318;2023-06-22T04:33:47;100937.13;;;21.82;100.00
3917;BME280;1973;50.518;7.318;2023-06-22T04:36:14;100943.84;;;21.87;100.00
3917;BME280;1973;50.518;7.318;2023-06-22T04:38:41;100937.94;;;21.88;100.00
3917;BME280;1973;50.518;7.318;2023-06-22T04:41:08;100939.38;;;21.91;100.00
3917;BME280;1973;50.518;7.318;2023-06-22T04:43:40;100936.53;;;21.96;100.00
3917;BME280;1973;50.518;7.318;2023-06-22T04:46:07;100937.94;;;21.98;100.00
3917;BME280;1973;50.518;7.318;2023-06-22T04:48:33;100940.44;;;22.00;100.00
3917;BME280;1973;50.518;7.318;2023-06-22T04:51:01;100938.47;;;22.00;100.00
3917;BME280;1973;50.518;7.318;2023-06-22T04:53:31;100942.66;;;22.03;100.00
3917;BME280;1973;50.518;7.318;2023-06-22T04:55:58;100943.50;;;22.03;100.00
3917;BME280;1973;50.518;7.318;2023-06-22T04:58:24;100948.84;;;22.05;100.00
3917;BME280;1973;50.518;7.318;2023-06-22T05:00:55;100940.97;;;22.07;100.00
3917;BME280;1973;50.518;7.318;2023-06-22T05:03:25;100940.38;;;22.10;100.00
3917;BME280;1973;50.518;7.318;2023-06-22T05:05:52;100940.09;;;22.11;100.00
3917;BME280;1973;50.518;7.318;2023-06-22T05:08:24;100938.66;;;22.14;100.00
3917;BME280;1973;50.518;7.318;2023-06-22T05:10:54;100942.88;;;22.16;100.00
3917;BME280;1973;50.518;7.318;2023-06-22T05:13:32;100935.25;;;22.22;100.00
3917;BME280;1973;50.518;7.318;2023-06-22T05:15:58;100930.16;;;22.29;100.00
3917;BME280;1973;50.518;7.318;2023-06-22T05:18:31;100923.97;;;22.32;100.00
3917;BME280;1973;50.518;7.318;2023-06-22T05:20:58;100913.84;;;22.36;100.00
3917;BME280;1973;50.518;7.318;2023-06-22T05:23:26;100919.16;;;22.43;100.00
3917;BME280;1973;50.518;7.318;2023-06-22T05:25:52;100919.09;;;22.48;100.00
3917;BME280;1973;50.518;7.318;2023-06-22T05:28:20;100916.88;;;22.45;100.00
3917;BME280;1973;50.518;7.318;2023-06-22T05:30:49;100912.38;;;22.49;100.00
3917;BME280;1973;50.518;7.318;2023-06-22T05:33:16;100910.94;;;22.51;100.00
3917;BME280;1973;50.518;7.318;2023-06-22T05:35:42;100911.19;;;22.55;100.00
3917;BME280;1973;50.518;7.318;2023-06-22T05:38:09;100910.06;;;22.56;100.00
3917;BME280;1973;50.518;7.318;2023-06-22T05:40:35;100909.72;;;22.62;100.00
3917;BME280;1973;50.518;7.318;2023-06-22T05:43:02;100909.72;;;22.67;100.00
3917;BME280;1973;50.518;7.318;2023-06-22T05:45:28;100893.38;;;22.74;100.00
3917;BME280;1973;50.518;7.318;2023-06-22T05:47:54;100899.50;;;22.82;100.00
3917;BME280;1973;50.518;7.318;2023-06-22T05:50:21;100899.97;;;22.89;100.00
3917;BME280;1973;50.518;7.318;2023-06-22T05:52:48;100903.28;;;22.96;100.00
3917;BME280;1973;50.518;7.318;2023-06-22T05:55:14;100906.06;;;23.01;100.00
3917;BME280;1973;50.518;7.318;2023-06-22T05:57:41;100912.69;;;23.10;100.00
3917;BME280;1973;50.518;7.318;2023-06-22T06:00:08;100914.59;;;23.19;100.00
3917;BME280;1973;50.518;7.318;2023-06-22T06:02:37;100911.41;;;23.26;100.00
3917;BME280;1973;50.518;7.318;2023-06-22T06:05:11;100914.19;;;23.31;100.00
3917;BME280;1973;50.518;7.318;2023-06-22T06:07:40;100908.44;;;23.41;100.00
3917;BME280;1973;50.518;7.318;2023-06-22T06:10:07;100908.34;;;23.51;100.00
3917;BME280;1973;50.518;7.318;2023-06-22T06:12:34;100915.41;;;23.49;100.00
3917;BME280;1973;50.518;7.318;2023-06-22T06:15:03;100916.72;;;23.56;100.00
3917;BME280;1973;50.518;7.318;2023-06-22T06:17:30;100911.59;;;23.63;100.00
3917;BME280;1973;50.518;7.318;2023-06-22T06:19:56;100924.16;;;23.71;100.00
3917;BME280;1973;50.518;7.318;2023-06-22T06:22:23;100921.50;;;23.80;100.00
3917;BME280;1973;50.518;7.318;2023-06-22T06:24:49;100927.91;;;23.85;100.00
3917;BME280;1973;50.518;7.318;2023-06-22T06:27:16;100921.38;;;23.90;100.00
3917;BME280;1973;50.518;7.318;2023-06-22T06:29:45;100931.41;;;23.96;100.00
3917;BME280;1973;50.518;7.318;2023-06-22T06:32:14;100922.59;;;24.02;100.00
3917;BME280;1973;50.518;7.318;2023-06-22T06:34:41;100924.50;;;24.07;100.00
3917;BME280;1973;50.518;7.318;2023-06-22T06:37:08;100928.94;;;24.13;100.00
3917;BME280;1973;50.518;7.318;2023-06-22T06:39:34;100926.91;;;24.18;100.00
3917;BME280;1973;50.518;7.318;2023-06-22T06:42:00;100923.72;;;24.25;100.00
3917;BME280;1973;50.518;7.318;2023-06-22T06:44:27;100927.53;;;24.34;100.00
3917;BME280;1973;50.518;7.318;2023-06-22T06:46:54;100917.88;;;24.40;100.00
3917;BME280;1973;50.518;7.318;2023-06-22T06:49:20;100916.13;;;24.44;100.00
3917;BME280;1973;50.518;7.318;2023-06-22T06:51:47;100914.88;;;24.50;100.00
3917;BME280;1973;50.518;7.318;2023-06-22T06:54:13;100908.03;;;24.56;100.00
3917;BME280;1973;50.518;7.318;2023-06-22T06:56:40;100905.56;;;24.68;100.00
3917;BME280;1973;50.518;7.318;2023-06-22T06:59:06;100895.28;;;24.78;100.00
3917;BME280;1973;50.518;7.318;2023-06-22T07:01:33;100892.94;;;24.85;100.00
3917;BME280;1973;50.518;7.318;2023-06-22T07:04:00;100898.94;;;24.97;100.00
3917;BME280;1973;50.518;7.318;2023-06-22T07:06:27;100895.19;;;25.01;100.00
3917;BME280;1973;50.518;7.318;2023-06-22T07:08:58;100898.53;;;25.03;100.00
3917;BME280;1973;50.518;7.318;2023-06-22T07:11:25;100893.72;;;25.04;100.00
3917;BME280;1973;50.518;7.318;2023-06-22T07:13:51;100896.97;;;25.11;100.00
3917;BME280;1973;50.518;7.318;2023-06-22T07:16:18;100884.44;;;25.17;100.00
3917;BME280;1973;50.518;7.318;2023-06-22T07:18:44;100871.94;;;25.23;100.00
3917;BME280;1973;50.518;7.318;2023-06-22T07:21:11;100856.31;;;25.31;100.00
3917;BME280;1973;50.518;7.318;2023-06-22T07:23:37;100847.72;;;25.36;100.00
3917;BME280;1973;50.518;7.318;2023-06-22T07:26:04;100860.25;;;25.43;100.00
3917;BME280;1973;50.518;7.318;2023-06-22T07:28:32;100857.84;;;25.50;100.00
3917;BME280;1973;50.518;7.318;2023-06-22T07:31:03;100842.53;;;25.56;100.00
3917;BME280;1973;50.518;7.318;2023-06-22T07:33:30;100852.66;;;25.57;100.00
3917;BME280;1973;50.518;7.318;2023-06-22T07:35:57;100851.31;;;25.55;100.00
3917;BME280;1973;50.518;7.318;2023-06-22T07:38:23;100848.53;;;25.50;100.00
3917;BME280;1973;50.518;7.318;2023-06-22T07:40:50;100847.31;;;25.42;100.00
3917;BME280;1973;50.518;7.318;2023-06-22T07:43:17;100845.44;;;25.38;100.00
3917;BME280;1973;50.518;7.318;2023-06-22T07:45:50;100851.28;;;25.41;100.00
3917;BME280;1973;50.518;7.318;2023-06-22T07:48:21;100848.97;;;25.30;100.00
3917;BME280;1973;50.518;7.318;2023-06-22T07:50:48;100847.00;;;25.30;100.00
3917;BME280;1973;50.518;7.318;2023-06-22T07:53:15;100850.66;;;25.31;100.00
3917;BME280;1973;50.518;7.318;2023-06-22T07:55:41;100844.06;;;25.35;100.00
3917;BME280;1973;50.518;7.318;2023-06-22T07:58:08;100843.66;;;25.42;100.00
3917;BME280;1973;50.518;7.318;2023-06-22T08:00:34;100836.47;;;25.49;100.00
3917;BME280;1973;50.518;7.318;2023-06-22T08:03:01;100823.94;;;25.55;100.00
3917;BME280;1973;50.518;7.318;2023-06-22T08:05:30;100824.56;;;25.66;100.00
3917;BME280;1973;50.518;7.318;2023-06-22T08:07:57;100807.09;;;25.78;100.00
3917;BME280;1973;50.518;7.318;2023-06-22T08:10:24;100804.03;;;25.88;100.00
3917;BME280;1973;50.518;7.318;2023-06-22T08:12:51;100795.94;;;25.95;100.00
3917;BME280;1973;50.518;7.318;2023-06-22T08:15:18;100785.59;;;26.04;100.00
3917;BME280;1973;50.518;7.318;2023-06-22T08:17:45;100791.63;;;26.11;100.00
3917;BME280;1973;50.518;7.318;2023-06-22T08:20:14;100782.63;;;26.23;100.00
3917;BME280;1973;50.518;7.318;2023-06-22T08:22:41;100765.72;;;26.31;100.00
3917;BME280;1973;50.518;7.318;2023-06-22T08:25:08;100757.84;;;26.42;100.00
3917;BME280;1973;50.518;7.318;2023-06-22T08:27:35;100759.44;;;26.56;100.00
3917;BME280;1973;50.518;7.318;2023-06-22T08:30:03;100750.53;;;26.72;100.00
3917;BME280;1973;50.518;7.318;2023-06-22T08:32:29;100753.84;;;26.74;100.00
3917;BME280;1973;50.518;7.318;2023-06-22T08:34:57;100751.66;;;26.93;100.00
3917;BME280;1973;50.518;7.318;2023-06-22T08:37:24;100746.72;;;27.07;100.00
3917;BME280;1973;50.518;7.318;2023-06-22T08:39:59;100738.59;;;27.14;100.00
3917;BME280;1973;50.518;7.318;2023-06-22T08:42:27;100735.47;;;27.24;100.00
3917;BME280;1973;50.518;7.318;2023-06-22T08:44:55;100731.00;;;27.40;100.00
3917;BME280;1973;50.518;7.318;2023-06-22T08:47:21;100736.91;;;27.52;100.00
3917;BME280;1973;50.518;7.318;2023-06-22T08:49:49;100730.25;;;27.66;100.00
3917;BME280;1973;50.518;7.318;2023-06-22T08:52:17;100717.59;;;27.72;100.00
3917;BME280;1973;50.518;7.318;2023-06-22T08:54:43;100714.44;;;27.82;100.00
3917;BME280;1973;50.518;7.318;2023-06-22T08:57:10;100717.28;;;27.82;100.00
3917;BME280;1973;50.518;7.318;2023-06-22T08:59:37;100718.28;;;27.86;100.00
3917;BME280;1973;50.518;7.318;2023-06-22T09:02:03;100705.44;;;27.97;100.00
3917;BME280;1973;50.518;7.318;2023-06-22T09:04:30;100708.97;;;28.11;100.00
3917;BME280;1973;50.518;7.318;2023-06-22T09:07:01;100692.44;;;28.22;98.85
3917;BME280;1973;50.518;7.318;2023-06-22T09:09:28;100696.25;;;28.34;98.58
3917;BME280;1973;50.518;7.318;2023-06-22T09:11:55;100685.56;;;28.48;97.48
3917;BME280;1973;50.518;7.318;2023-06-22T09:14:21;100676.00;;;28.62;96.55
3917;BME280;1973;50.518;7.318;2023-06-22T09:16:48;100666.47;;;28.75;96.62
3917;BME280;1973;50.518;7.318;2023-06-22T09:19:15;100651.91;;;28.85;95.19
3917;BME280;1973;50.518;7.318;2023-06-22T09:21:41;100633.72;;;28.86;92.85
3917;BME280;1973;50.518;7.318;2023-06-22T09:24:08;100625.81;;;29.00;92.34
3917;BME280;1973;50.518;7.318;2023-06-22T09:26:34;100617.72;;;29.11;91.63
3917;BME280;1973;50.518;7.318;2023-06-22T09:29:01;100619.81;;;29.22;90.95
3917;BME280;1973;50.518;7.318;2023-06-22T09:31:27;100612.88;;;29.11;89.90
3917;BME280;1973;50.518;7.318;2023-06-22T09:33:54;100620.88;;;29.09;89.40
3917;BME280;1973;50.518;7.318;2023-06-22T09:36:21;100621.13;;;29.04;88.43
3917;BME280;1973;50.518;7.318;2023-06-22T09:38:48;100630.09;;;29.06;88.42
3917;BME280;1973;50.518;7.318;2023-06-22T09:41:21;100626.00;;;28.95;88.19
3917;BME280;1973;50.518;7.318;2023-06-22T09:43:48;100625.72;;;28.88;89.00
3917;BME280;1973;50.518;7.318;2023-06-22T09:46:15;100624.75;;;28.75;88.66
3917;BME280;1973;50.518;7.318;2023-06-22T09:48:42;100619.81;;;28.64;88.59
3917;BME280;1973;50.518;7.318;2023-06-22T09:51:09;100636.19;;;28.49;89.36
3917;BME280;1973;50.518;7.318;2023-06-22T09:53:35;100641.56;;;28.42;90.18
3917;BME280;1973;50.518;7.318;2023-06-22T09:56:02;100647.75;;;28.36;90.75
3917;BME280;1973;50.518;7.318;2023-06-22T09:58:28;100642.63;;;28.29;90.88
3917;BME280;1973;50.518;7.318;2023-06-22T10:00:55;100648.97;;;28.26;92.31
3917;BME280;1973;50.518;7.318;2023-06-22T10:03:21;100638.78;;;28.25;93.65
3917;BME280;1973;50.518;7.318;2023-06-22T10:05:49;100631.66;;;28.19;94.36
3917;BME280;1973;50.518;7.318;2023-06-22T10:08:16;100619.50;;;28.10;94.73
3917;BME280;1973;50.518;7.318;2023-06-22T10:10:42;100620.84;;;28.04;95.67
3917;BME280;1973;50.518;7.318;2023-06-22T10:13:09;100625.00;;;27.98;94.56
3917;BME280;1973;50.518;7.318;2023-06-22T10:15:37;100641.19;;;27.89;94.33
3917;BME280;1973;50.518;7.318;2023-06-22T10:18:04;100690.63;;;27.83;93.73
3917;BME280;1973;50.518;7.318;2023-06-22T10:20:31;100717.59;;;27.72;92.90
3917;BME280;1973;50.518;7.318;2023-06-22T10:22:57;100732.09;;;27.70;93.16
3917;BME280;1973;50.518;7.318;2023-06-22T10:25:26;100731.75;;;27.63;93.97
3917;BME280;1973;50.518;7.318;2023-06-22T10:27:53;100731.09;;;27.66;95.53
3917;BME280;1973;50.518;7.318;2023-06-22T10:30:20;100725.09;;;27.68;97.15
3917;BME280;1973;50.518;7.318;2023-06-22T10:32:47;100708.44;;;27.66;100.00
3917;BME280;1973;50.518;7.318;2023-06-22T10:35:14;100712.25;;;27.62;100.00
3917;BME280;1973;50.518;7.318;2023-06-22T10:37:43;100723.75;;;27.56;100.00
3917;BME280;1973;50.518;7.318;2023-06-22T10:40:12;100725.41;;;27.49;100.00
3917;BME280;1973;50.518;7.318;2023-06-22T10:42:39;100725.00;;;27.33;100.00
3917;BME280;1973;50.518;7.318;2023-06-22T10:45:06;100737.63;;;27.19;100.00
3917;BME280;1973;50.518;7.318;2023-06-22T10:47:33;100724.25;;;27.02;100.00
3917;BME280;1973;50.518;7.318;2023-06-22T10:50:01;100716.88;;;26.84;100.00
3917;BME280;1973;50.518;7.318;2023-06-22T10:52:27;100705.09;;;26.59;100.00
3917;BME280;1973;50.518;7.318;2023-06-22T10:54:54;100688.03;;;26.42;100.00
3917;BME280;1973;50.518;7.318;2023-06-22T10:57:21;100677.63;;;26.21;100.00
3917;BME280;1973;50.518;7.318;2023-06-22T10:59:48;100711.88;;;26.05;100.00
3917;BME280;1973;50.518;7.318;2023-06-22T11:02:14;100770.31;;;25.83;100.00
3917;BME280;1973;50.518;7.318;2023-06-22T11:04:41;100832.50;;;25.23;100.00
3917;BME280;1973;50.518;7.318;2023-06-22T11:07:09;100828.72;;;24.68;100.00
3917;BME280;1973;50.518;7.318;2023-06-22T11:09:35;100781.75;;;24.63;100.00
3917;BME280;1973;50.518;7.318;2023-06-22T11:12:02;100741.94;;;24.24;100.00
3917;BME280;1973;50.518;7.318;2023-06-22T11:14:29;100732.28;;;24.11;100.00
3917;BME280;1973;50.518;7.318;2023-06-22T11:16:56;100710.00;;;24.15;100.00
3917;BME280;1973;50.518;7.318;2023-06-22T11:19:23;100708.28;;;24.33;100.00
3917;BME280;1973;50.518;7.318;2023-06-22T11:21:49;100693.00;;;24.39;100.00
3917;BME280;1973;50.518;7.318;2023-06-22T11:24:16;100683.84;;;24.60;100.00
3917;BME280;1973;50.518;7.318;2023-06-22T11:26:43;100673.28;;;24.80;100.00
3917;BME280;1973;50.518;7.318;2023-06-22T11:29:09;100684.25;;;24.95;100.00
3917;BME280;1973;50.518;7.318;2023-06-22T11:31:54;100678.22;;;25.01;100.00
3917;BME280;1973;50.518;7.318;2023-06-22T11:34:20;100678.31;;;25.10;100.00
3917;BME280;1973;50.518;7.318;2023-06-22T11:36:47;100677.47;;;25.23;100.00
3917;BME280;1973;50.518;7.318;2023-06-22T11:39:14;100663.22;;;25.28;100.00
3917;BME280;1973;50.518;7.318;2023-06-22T11:41:41;100663.13;;;25.33;100.00
3917;BME280;1973;50.518;7.318;2023-06-22T11:44:08;100655.06;;;25.40;100.00
3917;BME280;1973;50.518;7.318;2023-06-22T11:46:35;100659.34;;;25.51;100.00
3917;BME280;1973;50.518;7.318;2023-06-22T11:49:01;100649.22;;;25.73;100.00
3917;BME280;1973;50.518;7.318;2023-06-22T11:51:28;100643.56;;;25.95;100.00
3917;BME280;1973;50.518;7.318;2023-06-22T11:53:57;100630.53;;;26.07;100.00
3917;BME280;1973;50.518;7.318;2023-06-22T11:56:25;100624.50;;;26.23;100.00
3917;BME280;1973;50.518;7.318;2023-06-22T11:58:51;100626.56;;;26.31;100.00
3917;BME280;1973;50.518;7.318;2023-06-22T12:01:18;100618.94;;;26.40;100.00
3917;BME280;1973;50.518;7.318;2023-06-22T12:03:44;100620.97;;;26.48;100.00
3917;BME280;1973;50.518;7.318;2023-06-22T12:06:11;100612.53;;;26.56;100.00
3917;BME280;1973;50.518;7.318;2023-06-22T12:08:37;100609.63;;;26.79;100.00
3917;BME280;1973;50.518;7.318;2023-06-22T12:11:06;100594.41;;;26.97;100.00
3917;BME280;1973;50.518;7.318;2023-06-22T12:13:33;100594.06;;;27.24;100.00
3917;BME280;1973;50.518;7.318;2023-06-22T12:15:59;100575.78;;;27.39;100.00
3917;BME280;1973;50.518;7.318;2023-06-22T12:18:26;100576.81;;;27.51;100.00
3917;BME280;1973;50.518;7.318;2023-06-22T12:20:52;100580.44;;;27.61;100.00
3917;BME280;1973;50.518;7.318;2023-06-22T12:23:19;100571.94;;;27.69;100.00
3917;BME280;1973;50.518;7.318;2023-06-22T12:25:46;100565.91;;;27.79;100.00
3917;BME280;1973;50.518;7.318;2023-06-22T12:28:12;100552.44;;;27.85;100.00
3917;BME280;1973;50.518;7.318;2023-06-22T12:30:39;100539.06;;;27.94;100.00
3917;BME280;1973;50.518;7.318;2023-06-22T12:33:05;100538.03;;;28.07;100.00
3917;BME280;1973;50.518;7.318;2023-06-22T12:35:32;100533.59;;;28.35;100.00
3917;BME280;1973;50.518;7.318;2023-06-22T12:37:58;100529.78;;;28.61;100.00
3917;BME280;1973;50.518;7.318;2023-06-22T12:40:25;100529.03;;;28.81;100.00
3917;BME280;1973;50.518;7.318;2023-06-22T12:42:51;100524.19;;;29.02;100.00
3917;BME280;1973;50.518;7.318;2023-06-22T12:45:18;100498.09;;;29.09;100.00
3917;BME280;1973;50.518;7.318;2023-06-22T12:47:46;100494.59;;;29.32;100.00
3917;BME280;1973;50.518;7.318;2023-06-22T12:50:13;100491.69;;;29.41;100.00
3917;BME280;1973;50.518;7.318;2023-06-22T12:52:39;100498.56;;;29.52;100.00
3917;BME280;1973;50.518;7.318;2023-06-22T12:55:07;100484.53;;;29.68;100.00
3917;BME280;1973;50.518;7.318;2023-06-22T12:57:34;100481.16;;;29.86;100.00
3917;BME280;1973;50.518;7.318;2023-06-22T13:00:00;100469.38;;;29.97;100.00
3917;BME280;1973;50.518;7.318;2023-06-22T13:02:27;100457.88;;;30.17;100.00
3917;BME280;1973;50.518;7.318;2023-06-22T13:04:54;100451.81;;;30.31;99.25
3917;BME280;1973;50.518;7.318;2023-06-22T13:07:20;100456.47;;;30.48;96.04
3917;BME280;1973;50.518;7.318;2023-06-22T13:09:50;100456.78;;;30.58;93.62
3917;BME280;1973;50.518;7.318;2023-06-22T13:12:20;100448.56;;;30.81;94.14
3917;BME280;1973;50.518;7.318;2023-06-22T13:14:47;100447.13;;;30.99;92.02